Time,TemperatureF,DewpointF,PressureIn,WindDirection,WindDirectionDegrees,WindSpeedMPH,WindSpeedGustMPH,Humidity,HourlyPrecipIn,Conditions,Clouds,dailyrainin,SoftwareType,DateUTC
2013-10-20 00:12:00,40.8,36.0,29.97,SSE,148,0.0,2.0,84,0.00,,,0.00,weatherlink.com 1.10,2013-10-20 04:12:00,
2013-10-20 00:27:00,40.9,36.0,29.97,SE,125,0.0,2.0,84,0.00,,,0.00,weatherlink.com 1.10,2013-10-20 04:27:00,
2013-10-20 00:42:00,41.2,36.0,29.97,ESE,102,0.0,3.0,83,0.00,,,0.00,weatherlink.com 1.10,2013-10-20 04:42:00,
2013-10-20 00:57:00,41.0,36.0,29.97,South,190,0.0,2.0,83,0.00,,,0.00,weatherlink.com 1.10,2013-10-20 04:57:00,
2013-10-20 01:12:00,40.7,36.0,29.97,SE,128,1.0,2.0,84,0.00,,,0.00,weatherlink.com 1.10,2013-10-20 05:12:00,
2013-10-20 01:27:00,40.7,36.0,29.96,SW,229,1.0,3.0,84,0.00,,,0.00,weatherlink.com 1.10,2013-10-20 05:27:00,
2013-10-20 01:42:00,40.3,36.0,29.96,South,169,0.0,2.0,85,0.00,,,0.00,weatherlink.com 1.10,2013-10-20 05:42:00,
2013-10-20 01:57:00,40.5,36.0,29.96,East,79,0.0,2.0,84,0.00,,,0.00,weatherlink.com 1.10,2013-10-20 05:57:00,
2013-10-20 02:12:00,40.3,36.0,29.96,ESE,105,0.0,4.0,85,0.00,,,0.00,weatherlink.com 1.10,2013-10-20 06:12:00,
2013-10-20 02:27:00,39.8,36.0,29.96,East,97,1.0,2.0,86,0.00,,,0.00,weatherlink.com 1.10,2013-10-20 06:27:00,
2013-10-20 02:42:00,39.6,36.0,29.96,ESE,117,0.0,3.0,87,0.00,,,0.00,weatherlink.com 1.10,2013-10-20 06:42:00,
2013-10-20 02:57:00,39.6,36.0,29.96,ESE,113,0.0,3.0,87,0.00,,,0.00,weatherlink.com 1.10,2013-10-20 06:57:00,
2013-10-20 03:12:00,39.4,36.0,29.96,East,88,0.0,0.0,87,0.00,,,0.00,weatherlink.com 1.10,2013-10-20 07:12:00,
2013-10-20 03:27:00,39.1,36.0,29.96,SE,142,0.0,0.0,88,0.00,,,0.00,weatherlink.com 1.10,2013-10-20 07:27:00,
2013-10-20 03:42:00,39.2,36.0,29.95,East,89,0.0,0.0,88,0.00,,,0.00,weatherlink.com 1.10,2013-10-20 07:42:00,
2013-10-20 03:57:00,39.2,36.0,29.95,SE,128,0.0,0.0,88,0.00,,,0.00,weatherlink.com 1.10,2013-10-20 07:57:00,
2013-10-20 04:12:00,39.3,36.0,29.95,East,95,1.0,1.0,89,0.00,,,0.00,weatherlink.com 1.10,2013-10-20 08:12:00,
2013-10-20 04:27:00,39.5,36.0,29.95,ESE,109,0.0,2.0,88,0.00,,,0.00,weatherlink.com 1.10,2013-10-20 08:27:00,
2013-10-20 04:42:00,39.4,37.0,29.94,East,82,0.0,4.0,89,0.00,,,0.00,weatherlink.com 1.10,2013-10-20 08:42:00,
2013-10-20 04:58:00,39.6,37.0,29.94,ESE,107,1.0,3.0,89,0.00,,,0.00,weatherlink.com 1.10,2013-10-20 08:58:00,
2013-10-20 05:13:00,39.6,36.0,29.94,ESE,110,2.0,3.0,88,0.00,,,0.00,weatherlink.com 1.10,2013-10-20 09:13:00,
2013-10-20 05:28:00,39.4,37.0,29.95,East,84,0.0,2.0,89,0.00,,,0.00,weatherlink.com 1.10,2013-10-20 09:28:00,
2013-10-20 05:43:00,39.3,36.0,29.95,SSE,155,0.0,2.0,89,0.00,,,0.00,weatherlink.com 1.10,2013-10-20 09:43:00,
2013-10-20 05:58:00,39.1,36.0,29.95,East,90,0.0,1.0,89,0.00,,,0.00,weatherlink.com 1.10,2013-10-20 09:58:00,
2013-10-20 06:13:00,38.9,36.0,29.95,ESE,122,1.0,2.0,90,0.00,,,0.00,weatherlink.com 1.10,2013-10-20 10:13:00,
2013-10-20 06:28:00,39.0,36.0,29.96,ESE,108,0.0,2.0,90,0.00,,,0.00,weatherlink.com 1.10,2013-10-20 10:28:00,
2013-10-20 06:43:00,39.0,36.0,29.96,East,94,0.0,3.0,90,0.00,,,0.00,weatherlink.com 1.10,2013-10-20 10:43:00,
2013-10-20 06:58:00,38.9,37.0,29.96,SW,228,0.0,3.0,91,0.00,,,0.00,weatherlink.com 1.10,2013-10-20 10:58:00,
2013-10-20 07:13:00,38.9,37.0,29.96,ESE,122,0.0,2.0,91,0.00,,,0.00,weatherlink.com 1.10,2013-10-20 11:13:00,
2013-10-20 07:28:00,39.1,37.0,29.96,ESE,113,1.0,3.0,91,0.00,,,0.00,weatherlink.com 1.10,2013-10-20 11:28:00,
2013-10-20 07:43:00,38.9,37.0,29.96,ESE,123,0.0,2.0,91,0.00,,,0.00,weatherlink.com 1.10,2013-10-20 11:43:00,
2013-10-20 07:58:00,39.2,37.0,29.96,ESE,123,2.0,3.0,91,0.00,,,0.00,weatherlink.com 1.10,2013-10-20 11:58:00,
2013-10-20 08:13:00,39.4,37.0,29.96,East,93,1.0,3.0,91,0.00,,,0.00,weatherlink.com 1.10,2013-10-20 12:13:00,
2013-10-20 08:28:00,39.7,37.0,29.97,East,97,2.0,4.0,91,0.00,,,0.00,weatherlink.com 1.10,2013-10-20 12:28:00,
2013-10-20 08:43:00,40.4,38.0,29.97,SE,128,0.0,3.0,90,0.00,,,0.00,weatherlink.com 1.10,2013-10-20 12:43:00,
2013-10-20 08:58:00,41.7,39.0,29.98,SE,132,1.0,5.0,89,0.00,,,0.00,weatherlink.com 1.10,2013-10-20 12:58:00,
2013-10-20 09:13:00,43.0,39.0,29.98,ESE,121,3.0,5.0,87,0.00,,,0.00,weatherlink.com 1.10,2013-10-20 13:13:00,
2013-10-20 09:28:00,44.2,40.0,29.99,SSW,200,3.0,5.0,85,0.00,,,0.00,weatherlink.com 1.10,2013-10-20 13:28:00,
2013-10-20 09:43:00,45.3,40.0,29.99,SSW,197,4.0,7.0,83,0.00,,,0.00,weatherlink.com 1.10,2013-10-20 13:43:00,
2013-10-20 09:58:00,46.3,41.0,29.99,East,89,1.0,6.0,82,0.00,,,0.00,weatherlink.com 1.10,2013-10-20 13:58:00,
2013-10-20 10:13:00,48.0,42.0,30.00,East,101,0.0,6.0,81,0.00,,,0.00,weatherlink.com 1.10,2013-10-20 14:13:00,
2013-10-20 10:28:00,49.5,43.0,29.99,South,176,3.0,7.0,77,0.00,,,0.00,weatherlink.com 1.10,2013-10-20 14:28:00,
2013-10-20 10:43:00,50.6,43.0,29.99,ESE,115,3.0,7.0,74,0.00,,,0.00,weatherlink.com 1.10,2013-10-20 14:43:00,
2013-10-20 10:58:00,52.1,43.0,29.99,SE,136,4.0,5.0,72,0.00,,,0.00,weatherlink.com 1.10,2013-10-20 14:58:00,
2013-10-20 11:13:00,53.4,43.0,29.99,ESE,104,6.0,7.0,69,0.00,,,0.00,weatherlink.com 1.10,2013-10-20 15:13:00,
2013-10-20 11:28:00,55.0,44.0,29.99,NE,52,1.0,4.0,67,0.00,,,0.00,weatherlink.com 1.10,2013-10-20 15:28:00,
2013-10-20 11:43:00,55.2,43.0,29.99,WNW,284,2.0,8.0,63,0.00,,,0.00,weatherlink.com 1.10,2013-10-20 15:43:00,
2013-10-20 11:59:00,56.2,43.0,29.99,South,181,3.0,11.0,62,0.00,,,0.00,weatherlink.com 1.10,2013-10-20 15:59:00,
2013-10-20 12:14:00,57.1,44.0,29.98,SE,133,3.0,9.0,62,0.00,,,0.00,weatherlink.com 1.10,2013-10-20 16:14:00,
2013-10-20 12:29:00,58.9,45.0,29.98,SSE,153,5.0,8.0,60,0.00,,,0.00,weatherlink.com 1.10,2013-10-20 16:29:00,
2013-10-20 12:44:00,58.6,44.0,29.98,SE,145,2.0,9.0,58,0.00,,,0.00,weatherlink.com 1.10,2013-10-20 16:44:00,
2013-10-20 12:59:00,59.4,44.0,29.98,West,274,2.0,8.0,57,0.00,,,0.00,weatherlink.com 1.10,2013-10-20 16:59:00,
2013-10-20 13:14:00,60.9,45.0,29.97,ESE,103,5.0,6.0,56,0.00,,,0.00,weatherlink.com 1.10,2013-10-20 17:14:00,
2013-10-20 13:29:00,60.7,43.0,29.97,East,81,2.0,8.0,53,0.00,,,0.00,weatherlink.com 1.10,2013-10-20 17:29:00,
2013-10-20 13:44:00,61.3,44.0,29.96,NE,39,1.0,8.0,53,0.00,,,0.00,weatherlink.com 1.10,2013-10-20 17:44:00,
2013-10-20 13:59:00,61.5,44.0,29.96,East,101,2.0,7.0,53,0.00,,,0.00,weatherlink.com 1.10,2013-10-20 17:59:00,
2013-10-20 14:14:00,62.0,44.0,29.95,East,100,2.0,8.0,52,0.00,,,0.00,weatherlink.com 1.10,2013-10-20 18:14:00,
2013-10-20 14:29:00,62.0,44.0,29.94,NNE,20,0.0,12.0,52,0.00,,,0.00,weatherlink.com 1.10,2013-10-20 18:29:00,
2013-10-20 14:44:00,62.9,44.0,29.94,East,98,1.0,10.0,50,0.00,,,0.00,weatherlink.com 1.10,2013-10-20 18:44:00,
2013-10-20 14:59:00,62.9,44.0,29.94,SSW,212,2.0,8.0,50,0.00,,,0.00,weatherlink.com 1.10,2013-10-20 18:59:00,
2013-10-20 15:14:00,63.1,44.0,29.93,ESE,108,3.0,11.0,50,0.00,,,0.00,weatherlink.com 1.10,2013-10-20 19:14:00,
2013-10-20 15:29:00,62.9,44.0,29.93,NW,307,4.0,11.0,50,0.00,,,0.00,weatherlink.com 1.10,2013-10-20 19:29:00,
2013-10-20 15:44:00,62.8,43.0,29.93,West,274,0.0,10.0,49,0.00,,,0.00,weatherlink.com 1.10,2013-10-20 19:44:00,
2013-10-20 15:59:00,62.8,43.0,29.93,West,269,1.0,10.0,48,0.00,,,0.00,weatherlink.com 1.10,2013-10-20 19:59:00,
2013-10-20 16:14:00,63.0,43.0,29.93,WNW,297,3.0,5.0,49,0.00,,,0.00,weatherlink.com 1.10,2013-10-20 20:14:00,
2013-10-20 16:29:00,62.4,43.0,29.93,SW,233,2.0,9.0,50,0.00,,,0.00,weatherlink.com 1.10,2013-10-20 20:29:00,
2013-10-20 16:44:00,62.2,44.0,29.93,SSE,167,3.0,8.0,51,0.00,,,0.00,weatherlink.com 1.10,2013-10-20 20:44:00,
2013-10-20 16:59:00,61.3,43.0,29.93,NE,43,1.0,8.0,52,0.00,,,0.00,weatherlink.com 1.10,2013-10-20 20:59:00,
2013-10-20 17:14:00,60.4,42.0,29.92,ENE,75,2.0,12.0,52,0.00,,,0.00,weatherlink.com 1.10,2013-10-20 21:14:00,
2013-10-20 17:29:00,60.0,42.0,29.93,NNE,30,3.0,12.0,52,0.00,,,0.00,weatherlink.com 1.10,2013-10-20 21:29:00,
2013-10-20 17:44:00,59.5,43.0,29.93,SSW,203,0.0,10.0,54,0.00,,,0.00,weatherlink.com 1.10,2013-10-20 21:44:00,
2013-10-20 17:59:00,59.0,42.0,29.93,SE,131,1.0,7.0,54,0.00,,,0.00,weatherlink.com 1.10,2013-10-20 21:59:00,
2013-10-20 18:14:00,58.3,42.0,29.93,SE,126,3.0,7.0,56,0.00,,,0.00,weatherlink.com 1.10,2013-10-20 22:14:00,
2013-10-20 18:29:00,57.6,43.0,29.92,SW,221,0.0,8.0,58,0.00,,,0.00,weatherlink.com 1.10,2013-10-20 22:29:00,
2013-10-20 18:44:00,56.9,43.0,29.92,ESE,110,2.0,7.0,60,0.00,,,0.00,weatherlink.com 1.10,2013-10-20 22:44:00,
2013-10-20 18:59:00,56.3,43.0,29.93,SSE,152,3.0,6.0,61,0.00,,,0.00,weatherlink.com 1.10,2013-10-20 22:59:00,
2013-10-20 19:14:00,55.7,43.0,29.93,SE,135,2.0,5.0,62,0.00,,,0.00,weatherlink.com 1.10,2013-10-20 23:14:00,
2013-10-20 19:29:00,54.7,43.0,29.93,SE,142,2.0,5.0,64,0.00,,,0.00,weatherlink.com 1.10,2013-10-20 23:29:00,
2013-10-20 19:44:00,54.0,43.0,29.93,ESE,117,1.0,4.0,66,0.00,,,0.00,weatherlink.com 1.10,2013-10-20 23:44:00,
2013-10-20 19:59:00,53.2,43.0,29.93,ESE,107,0.0,3.0,68,0.00,,,0.00,weatherlink.com 1.10,2013-10-20 23:59:00,
2013-10-20 20:14:00,52.4,43.0,29.93,East,90,1.0,5.0,70,0.00,,,0.00,weatherlink.com 1.10,2013-10-21 00:14:00,
2013-10-20 20:29:00,52.5,43.0,29.93,SE,139,0.0,4.0,69,0.00,,,0.00,weatherlink.com 1.10,2013-10-21 00:29:00,
2013-10-20 20:44:00,52.5,43.0,29.93,SE,126,2.0,6.0,69,0.00,,,0.00,weatherlink.com 1.10,2013-10-21 00:44:00,
2013-10-20 20:59:00,52.7,42.0,29.93,SE,124,3.0,6.0,68,0.00,,,0.00,weatherlink.com 1.10,2013-10-21 00:59:00,
2013-10-20 21:14:00,52.5,43.0,29.93,SE,133,3.0,6.0,69,0.00,,,0.00,weatherlink.com 1.10,2013-10-21 01:14:00,
2013-10-20 21:29:00,52.1,43.0,29.94,SSE,154,2.0,7.0,70,0.00,,,0.00,weatherlink.com 1.10,2013-10-21 01:29:00,
2013-10-20 21:44:00,51.8,42.0,29.94,SSE,165,0.0,5.0,70,0.00,,,0.00,weatherlink.com 1.10,2013-10-21 01:44:00,
2013-10-20 21:59:00,51.6,42.0,29.94,NE,38,2.0,5.0,71,0.00,,,0.00,weatherlink.com 1.10,2013-10-21 01:59:00,
2013-10-20 22:14:00,51.3,43.0,29.94,ESE,119,1.0,6.0,72,0.00,,,0.00,weatherlink.com 1.10,2013-10-21 02:14:00,
2013-10-20 22:29:00,51.1,42.0,29.94,SE,128,1.0,6.0,72,0.00,,,0.00,weatherlink.com 1.10,2013-10-21 02:29:00,
2013-10-20 22:44:00,50.8,42.0,29.94,East,89,1.0,5.0,73,0.00,,,0.00,weatherlink.com 1.10,2013-10-21 02:44:00,
2013-10-20 22:59:00,50.4,42.0,29.94,SE,132,2.0,5.0,74,0.00,,,0.00,weatherlink.com 1.10,2013-10-21 02:59:00,
2013-10-20 23:14:00,50.2,42.0,29.94,East,89,2.0,4.0,74,0.00,,,0.00,weatherlink.com 1.10,2013-10-21 03:14:00,
2013-10-20 23:29:00,49.7,42.0,29.94,SE,128,3.0,4.0,75,0.00,,,0.00,weatherlink.com 1.10,2013-10-21 03:29:00,
2013-10-20 23:44:00,49.2,42.0,29.93,SSE,150,1.0,6.0,77,0.00,,,0.00,weatherlink.com 1.10,2013-10-21 03:44:00,
2013-10-20 23:59:00,49.1,42.0,29.93,ESE,117,0.0,5.0,77,0.00,,,0.00,weatherlink.com 1.10,2013-10-21 03:59:00,